Time;durP1;ratioP1;P1;durP2;ratioP2;P2;SDS_P1;SDS_P2;PMS_P1;PMS_P2;Temp;Humidity;BMP_temperature;BMP_pressure;BME280_temperature;BME280_humidity;BME280_pressure;Samples;Min_cycle;Max_cycle;Signal;HPM_P1;HPM_P2
2022/04/06 00:01:26;;;;;;;0.00;0.00;;;;;;;;;;4984617;28;20022;-79
2022/04/06 00:03:52;;;;;;;0.00;0.00;;;;;;;;;;4987532;28;20021;-81
2022/04/06 00:06:18;;;;;;;0.00;0.00;;;;;;;;;;4988800;28;20025;-76
2022/04/06 00:08:44;;;;;;;0.00;0.00;;;;;;;;;;4988547;28;20309;-77
2022/04/06 00:11:11;;;;;;;0.00;0.00;;;;;;;;;;5023306;28;20048;-77
2022/04/06 00:13:37;;;;;;;0.00;0.00;;;;;;;;;;5008177;28;20025;-77
2022/04/06 00:16:03;;;;;;;0.00;0.00;;;;;;;;;;5024951;28;20030;-78
2022/04/06 00:18:29;;;;;;;0.00;0.00;;;;;;;;;;5000196;28;20018;-78
2022/04/06 00:20:55;;;;;;;0.00;0.00;;;;;;;;;;5004583;28;20018;-78
2022/04/06 00:23:21;;;;;;;0.00;0.00;;;;;;;;;;4988689;28;20050;-79
2022/04/06 00:25:47;;;;;;;0.00;0.00;;;;;;;;;;5006320;28;20064;-79
2022/04/06 00:28:13;;;;;;;0.00;0.00;;;;;;;;;;4988166;28;20084;-78
2022/04/06 00:30:39;;;;;;;0.00;0.00;;;;;;;;;;4987320;28;20093;-78
2022/04/06 00:33:05;;;;;;;0.00;0.00;;;;;;;;;;4987601;28;20029;-76
2022/04/06 00:35:32;;;;;;;0.00;0.00;;;;;;;;;;4987893;28;20046;-77
2022/04/06 00:38:02;;;;;;;0.00;0.00;;;;;;;;;;4987594;28;20014;-79
2022/04/06 00:40:29;;;;;;;0.00;0.00;;;;;;;;;;4988765;28;20018;-79
2022/04/06 00:42:55;;;;;;;0.00;0.00;;;;;;;;;;4986943;28;20053;-82
2022/04/06 00:45:25;;;;;;;0.00;0.00;;;;;;;;;;4988286;28;20312;-78
2022/04/06 00:47:52;;;;;;;0.00;0.00;;;;;;;;;;5005423;28;20041;-77
2022/04/06 00:50:18;;;;;;;0.00;0.00;;;;;;;;;;4987664;28;20014;-78
2022/04/06 00:52:45;;;;;;;0.00;0.00;;;;;;;;;;5004317;28;20029;-76
2022/04/06 00:55:12;;;;;;;0.00;0.00;;;;;;;;;;4987372;28;20025;-77
2022/04/06 00:57:39;;;;;;;0.00;0.00;;;;;;;;;;5004971;28;20018;-78
2022/04/06 01:00:06;;;;;;;0.00;0.00;;;;;;;;;;4987360;28;20022;-76
2022/04/06 01:02:32;;;;;;;0.00;0.00;;;;;;;;;;4987079;28;20046;-79
2022/04/06 01:04:58;;;;;;;0.00;0.00;;;;;;;;;;4986487;28;20064;-79
2022/04/06 01:07:24;;;;;;;0.00;0.00;;;;;;;;;;4987813;28;20061;-78
2022/04/06 01:09:51;;;;;;;0.00;0.00;;;;;;;;;;4987869;28;20189;-76
2022/04/06 01:12:17;;;;;;;0.00;0.00;;;;;;;;;;4986107;28;20314;-77
2022/04/06 01:14:43;;;;;;;0.00;0.00;;;;;;;;;;4987024;28;20318;-77
2022/04/06 01:17:10;;;;;;;0.00;0.00;;;;;;;;;;4986790;28;20022;-77
2022/04/06 01:19:38;;;;;;;0.00;0.00;;;;;;;;;;4987406;28;20028;-76
2022/04/06 01:22:08;;;;;;;0.00;0.00;;;;;;;;;;4986671;28;20065;-77
2022/04/06 01:24:34;;;;;;;0.00;0.00;;;;;;;;;;4986426;28;20353;-77
2022/04/06 01:27:04;;;;;;;0.00;0.00;;;;;;;;;;4986437;28;20022;-80
2022/04/06 01:29:30;;;;;;;0.00;0.00;;;;;;;;;;4987865;28;20012;-79
2022/04/06 01:31:56;;;;;;;0.00;0.00;;;;;;;;;;5004855;28;20068;-81
2022/04/06 01:34:23;;;;;;;0.00;0.00;;;;;;;;;;4978217;28;20027;-78
2022/04/06 01:36:49;;;;;;;0.00;0.00;;;;;;;;;;4998821;28;20244;-78
2022/04/06 01:39:15;;;;;;;0.00;0.00;;;;;;;;;;4986598;28;20015;-77
2022/04/06 01:41:41;;;;;;;0.00;0.00;;;;;;;;;;4971033;28;20042;-78
2022/04/06 01:44:07;;;;;;;0.00;0.00;;;;;;;;;;4979326;28;20084;-78
2022/04/06 01:46:34;;;;;;;0.00;0.00;;;;;;;;;;4979285;28;20034;-78
2022/04/06 01:54:30;;;;;;;0.00;0.00;;;;;;;;;;4991115;28;20074;-79
2022/04/06 01:56:56;;;;;;;0.00;0.00;;;;;;;;;;4979920;28;20075;-78
2022/04/06 01:59:22;;;;;;;0.00;0.00;;;;;;;;;;4982860;28;20034;-80
2022/04/06 02:01:51;;;;;;;0.00;0.00;;;;;;;;;;4979421;28;20023;-78
2022/04/06 02:04:18;;;;;;;0.00;0.00;;;;;;;;;;4970105;28;20397;-77
2022/04/06 02:06:44;;;;;;;0.00;0.00;;;;;;;;;;4981498;28;20093;-78
2022/04/06 02:09:11;;;;;;;0.00;0.00;;;;;;;;;;4984023;28;20014;-77
2022/04/06 02:11:37;;;;;;;0.00;0.00;;;;;;;;;;4976068;28;20015;-78
2022/04/06 02:14:07;;;;;;;0.00;0.00;;;;;;;;;;4975386;28;20332;-79
2022/04/06 02:16:34;;;;;;;0.00;0.00;;;;;;;;;;4986835;28;20034;-81
2022/04/06 02:19:00;;;;;;;0.00;0.00;;;;;;;;;;4974061;28;20109;-81
2022/04/06 02:21:26;;;;;;;0.00;0.00;;;;;;;;;;4975180;28;20014;-79
2022/04/06 02:23:52;;;;;;;0.00;0.00;;;;;;;;;;4974089;28;20022;-81
2022/04/06 02:26:18;;;;;;;0.25;0.25;;;;;;;;;;4990810;28;20195;-78
2022/04/06 02:28:44;;;;;;;0.00;0.00;;;;;;;;;;4974450;28;20014;-78
2022/04/06 02:31:11;;;;;;;0.00;0.00;;;;;;;;;;4983319;28;20232;-78
2022/04/06 02:33:37;;;;;;;0.00;0.00;;;;;;;;;;5002686;28;20018;-79
2022/04/06 02:36:03;;;;;;;0.00;0.00;;;;;;;;;;5001974;28;20073;-79
2022/04/06 02:38:30;;;;;;;0.00;0.00;;;;;;;;;;4988057;28;20034;-78
2022/04/06 02:40:56;;;;;;;0.00;0.00;;;;;;;;;;4985464;28;20024;-78
2022/04/06 02:43:22;;;;;;;0.00;0.00;;;;;;;;;;4985160;28;20037;-78
2022/04/06 02:45:48;;;;;;;0.00;0.00;;;;;;;;;;4985745;28;20113;-79
2022/04/06 02:48:16;;;;;;;0.00;0.00;;;;;;;;;;5001213;28;20014;-78
2022/04/06 02:50:42;;;;;;;0.00;0.00;;;;;;;;;;4985718;28;20018;-78
2022/04/06 02:53:08;;;;;;;0.00;0.00;;;;;;;;;;4984798;28;20079;-77
2022/04/06 02:55:35;;;;;;;0.00;0.00;;;;;;;;;;4985632;28;20018;-77
2022/04/06 02:58:01;;;;;;;0.00;0.00;;;;;;;;;;4982325;28;20341;-82
2022/04/06 03:00:27;;;;;;;0.00;0.00;;;;;;;;;;4982265;28;20019;-77
2022/04/06 03:02:53;;;;;;;0.00;0.00;;;;;;;;;;4985081;28;20101;-78
2022/04/06 03:05:19;;;;;;;0.00;0.00;;;;;;;;;;4984941;28;20356;-77
2022/04/06 03:07:45;;;;;;;0.00;0.00;;;;;;;;;;4985664;28;20029;-77
2022/04/06 03:10:11;;;;;;;0.00;0.00;;;;;;;;;;4984102;28;20041;-77
2022/04/06 03:12:37;;;;;;;0.00;0.00;;;;;;;;;;5003104;28;20198;-77
2022/04/06 03:15:03;;;;;;;0.00;0.00;;;;;;;;;;5001195;28;20022;-81
2022/04/06 03:17:29;;;;;;;0.00;0.00;;;;;;;;;;4985587;28;20119;-80
2022/04/06 03:19:55;;;;;;;0.00;0.00;;;;;;;;;;4984828;28;20015;-80
2022/04/06 03:22:21;;;;;;;0.00;0.00;;;;;;;;;;4984617;28;20057;-80
2022/04/06 03:24:47;;;;;;;0.00;0.00;;;;;;;;;;4981224;28;20055;-80
2022/04/06 03:29:59;;;;;;;0.00;0.00;;;;;;;;;;4974713;28;20034;-80
2022/04/06 03:32:25;;;;;;;0.00;0.00;;;;;;;;;;4963089;28;20394;-80
2022/04/06 03:34:51;;;;;;;0.00;0.00;;;;;;;;;;4965195;28;20022;-80
2022/04/06 03:37:17;;;;;;;0.00;0.00;;;;;;;;;;4981681;28;20014;-80
2022/04/06 03:39:43;;;;;;;0.00;0.00;;;;;;;;;;4978394;28;20019;-80
2022/04/06 03:42:09;;;;;;;0.00;0.00;;;;;;;;;;4961940;28;20039;-80
2022/04/06 03:44:35;;;;;;;0.00;0.00;;;;;;;;;;4963939;28;20027;-80
2022/04/06 03:47:01;;;;;;;0.00;0.00;;;;;;;;;;4964689;28;20528;-83
2022/04/06 03:49:27;;;;;;;0.00;0.00;;;;;;;;;;4960864;28;20031;-80
2022/04/06 03:51:53;;;;;;;0.00;0.00;;;;;;;;;;4958852;28;20046;-78
2022/04/06 03:54:20;;;;;;;0.00;0.00;;;;;;;;;;4956846;28;20019;-80
2022/04/06 03:56:46;;;;;;;0.00;0.00;;;;;;;;;;4977795;28;20094;-81
2022/04/06 03:59:12;;;;;;;0.00;0.00;;;;;;;;;;4982378;28;20018;-83
2022/04/06 04:01:38;;;;;;;0.00;0.00;;;;;;;;;;4972205;28;20158;-82
2022/04/06 04:04:04;;;;;;;0.00;0.00;;;;;;;;;;4963448;28;20046;-83
2022/04/06 04:06:31;;;;;;;0.00;0.00;;;;;;;;;;4962086;29;20026;-83
2022/04/06 04:08:57;;;;;;;0.00;0.00;;;;;;;;;;4976457;28;20026;-83
2022/04/06 04:11:23;;;;;;;0.00;0.00;;;;;;;;;;4976770;28;20041;-82
2022/04/06 04:13:49;;;;;;;0.00;0.00;;;;;;;;;;4966298;28;20019;-82
2022/04/06 04:16:15;;;;;;;0.00;0.00;;;;;;;;;;4981481;28;20023;-82
2022/04/06 04:18:42;;;;;;;0.00;0.00;;;;;;;;;;4982110;28;20026;-82
2022/04/06 04:23:53;;;;;;;0.00;0.00;;;;;;;;;;4982947;28;20018;-81
2022/04/06 04:26:19;;;;;;;0.00;0.00;;;;;;;;;;5001499;28;20053;-82
2022/04/06 04:28:45;;;;;;;0.00;0.00;;;;;;;;;;4984661;28;20015;-80
2022/04/06 04:31:11;;;;;;;0.00;0.00;;;;;;;;;;4983910;28;20148;-80
2022/04/06 04:33:37;;;;;;;0.00;0.00;;;;;;;;;;4984133;28;20015;-78
2022/04/06 04:36:03;;;;;;;0.00;0.00;;;;;;;;;;4984857;28;20105;-78
2022/04/06 04:38:29;;;;;;;0.00;0.00;;;;;;;;;;5001332;28;20069;-78
2022/04/06 04:40:56;;;;;;;0.00;0.00;;;;;;;;;;4984340;28;20050;-78
2022/04/06 04:43:22;;;;;;;0.00;0.00;;;;;;;;;;4977327;28;20066;-78
2022/04/06 04:45:49;;;;;;;0.00;0.00;;;;;;;;;;4965487;28;20027;-78
2022/04/06 04:48:15;;;;;;;0.00;0.00;;;;;;;;;;4965326;28;20019;-78
2022/04/06 04:50:41;;;;;;;0.00;0.00;;;;;;;;;;4982154;28;20044;-78
2022/04/06 04:53:07;;;;;;;0.00;0.00;;;;;;;;;;4988053;28;20024;-82
2022/04/06 04:55:34;;;;;;;0.00;0.00;;;;;;;;;;4987540;28;20033;-77
2022/04/06 04:58:00;;;;;;;0.00;0.00;;;;;;;;;;4988243;28;20018;-77
2022/04/06 05:00:26;;;;;;;0.00;0.00;;;;;;;;;;5003060;28;20081;-78
2022/04/06 05:02:52;;;;;;;0.00;0.00;;;;;;;;;;5001672;28;20021;-77
2022/04/06 05:05:19;;;;;;;0.00;0.00;;;;;;;;;;4997099;28;20053;-77
2022/04/06 05:07:45;;;;;;;0.00;0.00;;;;;;;;;;5001168;28;20077;-76
2022/04/06 05:10:11;;;;;;;0.00;0.00;;;;;;;;;;4989094;28;20073;-80
2022/04/06 05:12:38;;;;;;;0.00;0.00;;;;;;;;;;5004055;28;20086;-75
2022/04/06 05:15:04;;;;;;;0.10;0.10;;;;;;;;;;4984677;28;20026;-74
2022/04/06 05:17:31;;;;;;;0.00;0.00;;;;;;;;;;4986036;28;20064;-79
2022/04/06 05:19:57;;;;;;;0.00;0.00;;;;;;;;;;4986826;28;20014;-80
2022/04/06 05:22:23;;;;;;;0.00;0.00;;;;;;;;;;5003528;28;20089;-80
2022/04/06 05:24:50;;;;;;;0.00;0.00;;;;;;;;;;4973778;28;20059;-78
2022/04/06 05:27:16;;;;;;;0.00;0.00;;;;;;;;;;4960179;29;20078;-75
2022/04/06 05:29:42;;;;;;;0.00;0.00;;;;;;;;;;4962017;29;20026;-79
2022/04/06 05:32:09;;;;;;;0.00;0.00;;;;;;;;;;4965753;28;20059;-81
2022/04/06 05:34:35;;;;;;;0.00;0.00;;;;;;;;;;4962307;29;20102;-80
2022/04/06 05:37:02;;;;;;;0.00;0.00;;;;;;;;;;4964851;28;20255;-78
2022/04/06 05:39:28;;;;;;;0.00;0.00;;;;;;;;;;4962135;29;20039;-79
2022/04/06 05:41:54;;;;;;;0.00;0.00;;;;;;;;;;4965635;28;20019;-82
2022/04/06 05:44:21;;;;;;;0.00;0.00;;;;;;;;;;4962178;28;20019;-82
2022/04/06 05:46:47;;;;;;;0.00;0.00;;;;;;;;;;4963322;29;20157;-79
2022/04/06 05:49:13;;;;;;;0.00;0.00;;;;;;;;;;4963908;29;20322;-84
2022/04/06 05:51:39;;;;;;;0.00;0.00;;;;;;;;;;4963179;28;20027;-81
2022/04/06 05:54:05;;;;;;;0.00;0.00;;;;;;;;;;4963531;28;20015;-81
2022/04/06 05:56:32;;;;;;;0.00;0.00;;;;;;;;;;4956269;29;20442;-81
2022/04/06 05:58:58;;;;;;;0.00;0.00;;;;;;;;;;4962752;29;20023;-81
2022/04/06 06:01:24;;;;;;;0.00;0.00;;;;;;;;;;4962874;28;20109;-80
2022/04/06 06:03:50;;;;;;;0.00;0.00;;;;;;;;;;4964053;29;20023;-82
2022/04/06 06:06:16;;;;;;;0.00;0.00;;;;;;;;;;4963808;29;20019;-83
2022/04/06 06:08:43;;;;;;;0.00;0.00;;;;;;;;;;4962817;29;20333;-83
2022/04/06 06:11:09;;;;;;;0.00;0.00;;;;;;;;;;4963710;29;20042;-82
2022/04/06 06:13:35;;;;;;;0.00;0.00;;;;;;;;;;4964327;28;20070;-80
2022/04/06 06:16:01;;;;;;;0.00;0.00;;;;;;;;;;4965053;29;20019;-83
2022/04/06 06:18:28;;;;;;;0.00;0.00;;;;;;;;;;4962130;29;20038;-84
2022/04/06 06:20:56;;;;;;;0.00;0.00;;;;;;;;;;4964081;29;20011;-83
2022/04/06 06:23:22;;;;;;;0.00;0.00;;;;;;;;;;4963495;29;20026;-83
2022/04/06 06:25:49;;;;;;;0.00;0.00;;;;;;;;;;4967135;28;20051;-83
2022/04/06 06:28:15;;;;;;;0.00;0.00;;;;;;;;;;4971843;28;20027;-86
2022/04/06 06:30:41;;;;;;;0.00;0.00;;;;;;;;;;4973823;28;20352;-82
2022/04/06 06:33:07;;;;;;;0.00;0.00;;;;;;;;;;4975328;28;20091;-82
2022/04/06 06:35:33;;;;;;;0.00;0.00;;;;;;;;;;4965480;28;20313;-82
2022/04/06 06:37:59;;;;;;;0.00;0.00;;;;;;;;;;4975480;28;20191;-82
2022/04/06 06:40:26;;;;;;;0.00;0.00;;;;;;;;;;4968945;28;20301;-82
2022/04/06 06:42:52;;;;;;;0.00;0.00;;;;;;;;;;4970083;28;20022;-81
2022/04/06 06:45:18;;;;;;;0.00;0.00;;;;;;;;;;4971893;28;20019;-81
2022/04/06 06:47:45;;;;;;;0.00;0.00;;;;;;;;;;4973941;28;20019;-81
2022/04/06 06:50:12;;;;;;;0.00;0.00;;;;;;;;;;4970148;28;20019;-81
2022/04/06 06:52:38;;;;;;;0.00;0.00;;;;;;;;;;4971661;28;20327;-81
2022/04/06 06:55:11;;;;;;;0.00;0.00;;;;;;;;;;4971692;28;20019;-81
2022/04/06 06:57:37;;;;;;;0.00;0.00;;;;;;;;;;4972865;28;20194;-81
2022/04/06 07:00:06;;;;;;;0.00;0.00;;;;;;;;;;4974365;28;20015;-81
2022/04/06 07:02:32;;;;;;;0.00;0.00;;;;;;;;;;4965156;28;20015;-80
2022/04/06 07:04:58;;;;;;;0.00;0.00;;;;;;;;;;4970873;28;20027;-79
2022/04/06 07:07:25;;;;;;;0.00;0.00;;;;;;;;;;4973064;28;20310;-80
2022/04/06 07:09:51;;;;;;;0.47;0.47;;;;;;;;;;4973236;28;20014;-81
2022/04/06 07:12:17;;;;;;;0.00;0.00;;;;;;;;;;4971642;28;20023;-83
2022/04/06 07:14:43;;;;;;;0.00;0.00;;;;;;;;;;4972584;28;20065;-76
2022/04/06 07:17:09;;;;;;;0.00;0.00;;;;;;;;;;4967672;28;20127;-80
2022/04/06 07:19:35;;;;;;;0.00;0.00;;;;;;;;;;4974905;28;20503;-81
2022/04/06 07:22:02;;;;;;;0.00;0.00;;;;;;;;;;4973663;28;20018;-81
2022/04/06 07:24:28;;;;;;;0.00;0.00;;;;;;;;;;4974358;28;20126;-81
2022/04/06 07:26:54;;;;;;;0.00;0.00;;;;;;;;;;5001971;28;20019;-81
2022/04/06 07:29:20;;;;;;;0.00;0.00;;;;;;;;;;4984062;28;20309;-83
2022/04/06 07:31:46;;;;;;;0.00;0.00;;;;;;;;;;4984682;28;20011;-81
2022/04/06 07:34:12;;;;;;;0.00;0.00;;;;;;;;;;5001489;28;20026;-82
2022/04/06 07:36:39;;;;;;;0.00;0.00;;;;;;;;;;5001859;28;20060;-83
2022/04/06 07:39:05;;;;;;;0.00;0.00;;;;;;;;;;5002978;28;20034;-82
2022/04/06 07:41:32;;;;;;;0.00;0.00;;;;;;;;;;5002757;28;20045;-84
2022/04/06 07:43:58;;;;;;;0.00;0.00;;;;;;;;;;5004742;28;20038;-85
2022/04/06 07:46:24;;;;;;;0.00;0.00;;;;;;;;;;5000835;28;20041;-79
2022/04/06 07:48:51;;;;;;;0.00;0.00;;;;;;;;;;5001904;28;20037;-82
2022/04/06 07:51:17;;;;;;;0.00;0.00;;;;;;;;;;4984703;28;20064;-83
2022/04/06 07:53:44;;;;;;;0.00;0.00;;;;;;;;;;4984699;28;20015;-79
2022/04/06 07:56:10;;;;;;;0.00;0.00;;;;;;;;;;4984533;28;20073;-80
2022/04/06 07:58:36;;;;;;;0.00;0.00;;;;;;;;;;4984565;28;20110;-80
2022/04/06 08:01:05;;;;;;;0.00;0.00;;;;;;;;;;4985713;28;20019;-79
2022/04/06 08:03:31;;;;;;;0.00;0.00;;;;;;;;;;4984128;28;20044;-80
2022/04/06 08:05:57;;;;;;;0.00;0.00;;;;;;;;;;4984418;28;20026;-80
2022/04/06 08:08:24;;;;;;;0.00;0.00;;;;;;;;;;4983855;28;20010;-80
2022/04/06 08:10:50;;;;;;;0.00;0.00;;;;;;;;;;4985323;28;20049;-79
2022/04/06 08:13:16;;;;;;;0.00;0.00;;;;;;;;;;4984621;28;20033;-82
2022/04/06 08:15:42;;;;;;;0.00;0.00;;;;;;;;;;4981170;28;20082;-80
2022/04/06 08:18:08;;;;;;;0.00;0.00;;;;;;;;;;4984471;28;20018;-77
2022/04/06 08:20:34;;;;;;;0.00;0.00;;;;;;;;;;5001868;28;20015;-73
2022/04/06 08:23:00;;;;;;;0.00;0.00;;;;;;;;;;5002389;28;20018;-79
2022/04/06 08:25:26;;;;;;;0.00;0.00;;;;;;;;;;4987228;28;20050;-81
2022/04/06 08:27:53;;;;;;;0.00;0.00;;;;;;;;;;5006070;28;20018;-79
2022/04/06 08:30:20;;;;;;;0.00;0.00;;;;;;;;;;4987677;28;20116;-84
2022/04/06 08:32:46;;;;;;;0.00;0.00;;;;;;;;;;4989039;28;20025;-81
2022/04/06 08:35:13;;;;;;;0.00;0.00;;;;;;;;;;4989601;28;20226;-79
2022/04/06 08:37:40;;;;;;;0.00;0.00;;;;;;;;;;4988449;28;20422;-79
2022/04/06 08:40:12;;;;;;;0.00;0.00;;;;;;;;;;4988571;28;20121;-79
2022/04/06 08:42:38;;;;;;;0.00;0.00;;;;;;;;;;4987705;28;20022;-77
2022/04/06 08:45:05;;;;;;;0.00;0.00;;;;;;;;;;5004832;28;20433;-76
2022/04/06 08:47:31;;;;;;;0.00;0.00;;;;;;;;;;4987691;28;20237;-74
2022/04/06 08:49:58;;;;;;;0.00;0.00;;;;;;;;;;4997663;28;20081;-75
2022/04/06 08:52:24;;;;;;;0.00;0.00;;;;;;;;;;4974293;28;20014;-78
2022/04/06 08:54:50;;;;;;;0.00;0.00;;;;;;;;;;5003981;28;20026;-78
2022/04/06 08:57:17;;;;;;;0.00;0.00;;;;;;;;;;4986910;28;20109;-73
2022/04/06 08:59:43;;;;;;;0.00;0.00;;;;;;;;;;4964831;28;20081;-82
2022/04/06 09:02:10;;;;;;;0.00;0.00;;;;;;;;;;4952561;28;20027;-78
2022/04/06 09:04:39;;;;;;;0.00;0.00;;;;;;;;;;4949093;28;20678;-77
2022/04/06 09:07:09;;;;;;;0.00;0.00;;;;;;;;;;4949089;28;20027;-78
2022/04/06 09:09:35;;;;;;;0.00;0.00;;;;;;;;;;4980031;28;20057;-79
2022/04/06 09:12:09;;;;;;;0.00;0.00;;;;;;;;;;4973960;28;20030;-80
2022/04/06 09:14:35;;;;;;;0.00;0.00;;;;;;;;;;4948425;28;20062;-78
2022/04/06 09:17:02;;;;;;;0.00;0.00;;;;;;;;;;4966855;28;20034;-75
2022/04/06 09:19:28;;;;;;;0.00;0.00;;;;;;;;;;4968919;28;20295;-77
2022/04/06 09:21:55;;;;;;;0.00;0.00;;;;;;;;;;4970709;28;20029;-75
2022/04/06 09:24:22;;;;;;;0.00;0.00;;;;;;;;;;4971351;28;20140;-75
2022/04/06 09:26:58;;;;;;;0.00;0.00;;;;;;;;;;4946011;28;20026;-77
2022/04/06 09:29:25;;;;;;;0.00;0.00;;;;;;;;;;4973535;28;20026;-80
2022/04/06 09:31:51;;;;;;;0.00;0.00;;;;;;;;;;4949305;28;20038;-77
2022/04/06 09:34:20;;;;;;;0.00;0.00;;;;;;;;;;4972891;28;20026;-80
2022/04/06 09:36:46;;;;;;;0.00;0.00;;;;;;;;;;4969674;28;20070;-78
2022/04/06 09:39:12;;;;;;;0.00;0.00;;;;;;;;;;4970014;28;20042;-78
2022/04/06 09:41:58;;;;;;;0.00;0.00;;;;;;;;;;4966919;28;20416;-79
2022/04/06 09:50:12;;;;;;;0.00;0.00;;;;;;;;;;4920145;28;20069;-75
2022/04/06 09:52:39;;;;;;;0.00;0.00;;;;;;;;;;4944085;28;20037;-77
2022/04/06 09:55:09;;;;;;;0.00;0.00;;;;;;;;;;4950356;28;20331;-77
2022/04/06 09:57:47;;;;;;;0.00;0.00;;;;;;;;;;4952387;28;20033;-79
2022/04/06 10:00:15;;;;;;;;;;;;;;;;;;4950195;28;20029;-76
2022/04/06 10:02:42;;;;;;;0.00;0.00;;;;;;;;;;4949511;28;20260;-78
2022/04/06 10:05:11;;;;;;;0.00;0.00;;;;;;;;;;4951389;28;20171;-74
2022/04/06 10:07:38;;;;;;;0.00;0.00;;;;;;;;;;4949860;28;20232;-77
2022/04/06 10:10:05;;;;;;;0.00;0.00;;;;;;;;;;4973073;28;20108;-74
2022/04/06 10:12:31;;;;;;;0.00;0.00;;;;;;;;;;4950334;28;20490;-76
2022/04/06 10:15:00;;;;;;;0.00;0.00;;;;;;;;;;4972055;28;20141;-77
2022/04/06 10:17:27;;;;;;;0.00;0.00;;;;;;;;;;4948066;28;20027;-78
2022/04/06 10:19:56;;;;;;;0.00;0.00;;;;;;;;;;4949165;28;20033;-79
2022/04/06 10:22:29;;;;;;;0.00;0.00;;;;;;;;;;4952016;28;20558;-77
2022/04/06 10:25:08;;;;;;;0.00;0.00;;;;;;;;;;4974360;28;20070;-73
2022/04/06 10:27:42;;;;;;;0.00;0.00;;;;;;;;;;4954584;28;20037;-78
2022/04/06 10:30:14;;;;;;;0.00;0.00;;;;;;;;;;4973659;28;20359;-75
2022/04/06 10:32:41;;;;;;;0.00;0.00;;;;;;;;;;4953100;28;20102;-79
2022/04/06 10:35:23;;;;;;;0.00;0.00;;;;;;;;;;4971325;28;20693;-78
2022/04/06 10:37:58;;;;;;;0.00;0.00;;;;;;;;;;4950564;28;20102;-80
2022/04/06 10:40:31;;;;;;;0.00;0.00;;;;;;;;;;4958042;28;20053;-79
2022/04/06 10:42:58;;;;;;;0.00;0.00;;;;;;;;;;4956271;28;21210;-76
2022/04/06 10:45:27;;;;;;;0.00;0.00;;;;;;;;;;4974047;28;20026;-76
2022/04/06 10:48:12;;;;;;;0.00;0.00;;;;;;;;;;4956139;28;20025;-77
2022/04/06 10:50:39;;;;;;;0.00;0.00;;;;;;;;;;4972820;28;20690;-76
2022/04/06 10:53:20;;;;;;;0.00;0.00;;;;;;;;;;4949820;28;20411;-76
2022/04/06 10:55:57;;;;;;;0.00;0.00;;;;;;;;;;4947184;28;20034;-77
2022/04/06 10:58:25;;;;;;;0.00;0.00;;;;;;;;;;4972906;28;20037;-77
2022/04/06 11:01:25;;;;;;;0.00;0.00;;;;;;;;;;4947886;28;20022;-75
2022/04/06 11:04:05;;;;;;;0.00;0.00;;;;;;;;;;4941127;28;20030;-78
2022/04/06 11:06:49;;;;;;;0.00;0.00;;;;;;;;;;4972239;28;20121;-77
2022/04/06 11:12:13;;;;;;;0.00;0.00;;;;;;;;;;4976856;28;20368;-80
2022/04/06 11:14:40;;;;;;;0.00;0.00;;;;;;;;;;4949563;28;20340;-79
2022/04/06 11:17:26;;;;;;;0.00;0.00;;;;;;;;;;4973846;28;20038;-78
2022/04/06 11:19:52;;;;;;;0.00;0.00;;;;;;;;;;4949827;28;20068;-77
2022/04/06 11:22:22;;;;;;;0.00;0.00;;;;;;;;;;4950044;28;20104;-77
2022/04/06 11:24:48;;;;;;;0.00;0.00;;;;;;;;;;4946654;28;20042;-78
2022/04/06 11:27:31;;;;;;;0.00;0.00;;;;;;;;;;4944442;28;20034;-78
2022/04/06 11:30:07;;;;;;;0.00;0.00;;;;;;;;;;4967881;28;20033;-78
2022/04/06 11:32:34;;;;;;;0.00;0.00;;;;;;;;;;4971977;28;20034;-78
2022/04/06 11:35:01;;;;;;;0.00;0.00;;;;;;;;;;4946895;28;20442;-78
2022/04/06 11:37:28;;;;;;;0.00;0.00;;;;;;;;;;4952311;28;20035;-74
2022/04/06 11:40:00;;;;;;;0.00;0.00;;;;;;;;;;4946703;28;20026;-75
2022/04/06 11:42:27;;;;;;;0.00;0.00;;;;;;;;;;4954574;28;20242;-77
2022/04/06 11:44:57;;;;;;;0.00;0.00;;;;;;;;;;4950292;28;20040;-76
2022/04/06 11:47:36;;;;;;;0.00;0.00;;;;;;;;;;4980155;28;20090;-74
2022/04/06 11:50:06;;;;;;;0.00;0.00;;;;;;;;;;4950606;28;20093;-76
2022/04/06 11:52:32;;;;;;;0.00;0.00;;;;;;;;;;4974871;28;20050;-74
2022/04/06 11:54:58;;;;;;;0.00;0.00;;;;;;;;;;4955747;28;20026;-77
2022/04/06 11:57:38;;;;;;;0.00;0.00;;;;;;;;;;4969228;28;20030;-78
2022/04/06 12:00:08;;;;;;;0.00;0.00;;;;;;;;;;4976218;28;20029;-77
2022/04/06 12:02:51;;;;;;;0.00;0.00;;;;;;;;;;4971716;28;20224;-78
2022/04/06 12:05:18;;;;;;;0.00;0.00;;;;;;;;;;4948548;28;20089;-76
2022/04/06 12:07:45;;;;;;;0.00;0.00;;;;;;;;;;4948058;28;20066;-77
2022/04/06 12:10:11;;;;;;;0.00;0.00;;;;;;;;;;4947222;28;20030;-75
2022/04/06 12:12:38;;;;;;;0.00;0.00;;;;;;;;;;4949568;28;20054;-76
2022/04/06 12:15:05;;;;;;;0.00;0.00;;;;;;;;;;4975795;28;20594;-77
2022/04/06 12:17:32;;;;;;;0.00;0.00;;;;;;;;;;4951161;28;20106;-77
2022/04/06 12:19:58;;;;;;;0.00;0.00;;;;;;;;;;4946996;28;20027;-77
2022/04/06 12:22:28;;;;;;;0.00;0.00;;;;;;;;;;4952712;28;20119;-75
2022/04/06 12:24:56;;;;;;;0.00;0.00;;;;;;;;;;4953649;28;20129;-76
2022/04/06 12:27:30;;;;;;;1.48;1.38;;;;;;;;;;4975782;28;20022;-78
2022/04/06 12:30:06;;;;;;;0.30;0.30;;;;;;;;;;4973294;28;20050;-77
2022/04/06 12:32:42;;;;;;;0.43;0.43;;;;;;;;;;4972778;28;20023;-80
2022/04/06 12:35:21;;;;;;;2.15;2.05;;;;;;;;;;4949432;28;20034;-79
2022/04/06 12:37:48;;;;;;;9.35;7.15;;;;;;;;;;4951767;28;20553;-81
2022/04/06 12:40:24;;;;;;;0.00;0.00;;;;;;;;;;4945991;28;20034;-78
2022/04/06 12:42:50;;;;;;;0.00;0.00;;;;;;;;;;4945930;28;20175;-77
2022/04/06 12:45:18;;;;;;;31.02;21.73;;;;;;;;;;4950244;28;20037;-78
2022/04/06 12:47:45;;;;;;;0.00;0.00;;;;;;;;;;4949512;28;20022;-81
2022/04/06 12:50:11;;;;;;;0.00;0.00;;;;;;;;;;4946934;28;20054;-75
2022/04/06 12:52:37;;;;;;;0.00;0.00;;;;;;;;;;4975728;28;20108;-80
2022/04/06 12:55:05;;;;;;;0.00;0.00;;;;;;;;;;4946509;28;20035;-79
2022/04/06 12:57:31;;;;;;;;;;;;;;;;;;4950112;28;20030;-78
2022/04/06 12:59:59;;;;;;;0.00;0.00;;;;;;;;;;4967634;28;19921;-78
2022/04/06 13:02:30;;;;;;;0.10;0.00;;;;;;;;;;4958497;28;20026;-75
2022/04/06 13:05:00;;;;;;;0.00;0.00;;;;;;;;;;4954786;28;20030;-77
2022/04/06 13:07:26;;;;;;;0.00;0.00;;;;;;;;;;4956348;28;20959;-78
2022/04/06 13:09:53;;;;;;;0.00;0.00;;;;;;;;;;4975097;28;20026;-78
2022/04/06 13:12:21;;;;;;;0.00;0.00;;;;;;;;;;4974230;28;20026;-80
2022/04/06 13:14:47;;;;;;;0.00;0.00;;;;;;;;;;4952432;28;20336;-79
2022/04/06 13:17:13;;;;;;;0.00;0.00;;;;;;;;;;4953413;28;20058;-80
2022/04/06 13:19:40;;;;;;;0.22;0.22;;;;;;;;;;4948347;28;20027;-78
2022/04/06 13:22:06;;;;;;;0.00;0.00;;;;;;;;;;4950620;28;20317;-80
2022/04/06 13:24:33;;;;;;;0.00;0.00;;;;;;;;;;4952018;28;20058;-77
2022/04/06 13:26:59;;;;;;;0.00;0.00;;;;;;;;;;4975854;28;20030;-75
2022/04/06 13:29:25;;;;;;;0.00;0.00;;;;;;;;;;4970074;28;20324;-82
2022/04/06 13:31:51;;;;;;;0.00;0.00;;;;;;;;;;4947304;28;20124;-80
2022/04/06 13:34:20;;;;;;;0.08;0.08;;;;;;;;;;4948211;28;20033;-77
2022/04/06 13:36:47;;;;;;;0.00;0.00;;;;;;;;;;4973726;28;20805;-81
2022/04/06 13:39:13;;;;;;;0.10;0.00;;;;;;;;;;4947156;28;20397;-78
2022/04/06 13:41:40;;;;;;;7.45;0.43;;;;;;;;;;4947258;28;20030;-76
2022/04/06 13:44:07;;;;;;;0.00;0.00;;;;;;;;;;4969707;28;20057;-78
2022/04/06 13:46:33;;;;;;;0.00;0.00;;;;;;;;;;4969858;28;20101;-77
2022/04/06 13:49:00;;;;;;;0.00;0.00;;;;;;;;;;4972540;28;20209;-73
2022/04/06 13:51:26;;;;;;;0.00;0.00;;;;;;;;;;4945151;28;20031;-73
2022/04/06 13:53:53;;;;;;;0.20;0.10;;;;;;;;;;4946529;28;20186;-74
2022/04/06 13:56:19;;;;;;;0.00;0.00;;;;;;;;;;4944235;28;20034;-74
2022/04/06 13:58:45;;;;;;;0.00;0.00;;;;;;;;;;4946280;28;20025;-78
2022/04/06 14:01:11;;;;;;;0.00;0.00;;;;;;;;;;4971081;28;20036;-78
2022/04/06 14:03:39;;;;;;;0.00;0.00;;;;;;;;;;4944874;28;20014;-79
2022/04/06 14:06:06;;;;;;;0.00;0.00;;;;;;;;;;4943073;28;20037;-76
2022/04/06 14:08:32;;;;;;;0.00;0.00;;;;;;;;;;4966840;28;20256;-74
2022/04/06 14:11:00;;;;;;;0.00;0.00;;;;;;;;;;4973465;28;20121;-79
2022/04/06 14:13:26;;;;;;;0.00;0.00;;;;;;;;;;4975794;28;20049;-75
2022/04/06 14:15:53;;;;;;;0.20;0.20;;;;;;;;;;4955411;28;20058;-73
2022/04/06 14:18:19;;;;;;;0.65;0.10;;;;;;;;;;4944063;28;20129;-73
2022/04/06 14:20:46;;;;;;;0.00;0.00;;;;;;;;;;4943240;28;20037;-73
2022/04/06 14:23:12;;;;;;;0.00;0.00;;;;;;;;;;4968174;28;21027;-74
2022/04/06 14:25:38;;;;;;;0.00;0.00;;;;;;;;;;4946213;28;20046;-75
2022/04/06 14:28:05;;;;;;;0.00;0.00;;;;;;;;;;4945256;28;20120;-74
2022/04/06 14:30:34;;;;;;;0.00;0.00;;;;;;;;;;4942853;28;20014;-74
2022/04/06 14:33:00;;;;;;;0.32;0.00;;;;;;;;;;4943037;28;20403;-82
2022/04/06 14:35:26;;;;;;;0.10;0.10;;;;;;;;;;4941274;28;20351;-77
2022/04/06 14:37:53;;;;;;;0.00;0.00;;;;;;;;;;4945655;28;20029;-73
2022/04/06 14:40:19;;;;;;;0.00;0.00;;;;;;;;;;4944724;28;20045;-80
2022/04/06 14:42:45;;;;;;;0.00;0.00;;;;;;;;;;4945286;28;20104;-76
2022/04/06 14:45:12;;;;;;;0.00;0.00;;;;;;;;;;4943207;28;20030;-75
2022/04/06 14:47:38;;;;;;;0.10;0.10;;;;;;;;;;4946216;28;20025;-79
2022/04/06 14:50:06;;;;;;;0.00;0.00;;;;;;;;;;4946336;28;20289;-75
2022/04/06 14:52:32;;;;;;;0.00;0.00;;;;;;;;;;4970969;28;20034;-78
2022/04/06 14:54:58;;;;;;;0.00;0.00;;;;;;;;;;4969529;28;20035;-78
2022/04/06 14:57:24;;;;;;;0.00;0.00;;;;;;;;;;4948311;28;20030;-77
2022/04/06 14:59:50;;;;;;;0.00;0.00;;;;;;;;;;4972139;28;20092;-83
2022/04/06 15:02:16;;;;;;;0.00;0.00;;;;;;;;;;4943908;28;20033;-90
2022/04/06 15:04:44;;;;;;;0.70;0.70;;;;;;;;;;4971703;28;20030;-80